sensor_id;sensor_type;location;lat;lon;timestamp;P1;durP1;ratioP1;P2;durP2;ratioP2
72127;SDS011;60000;51.030;7.024;2024-03-23T00:51:12;8.85;;;2.88;;
72127;SDS011;60000;51.030;7.024;2024-03-23T00:56:03;14.33;;;3.17;;
72127;SDS011;60000;51.030;7.024;2024-03-23T00:58:29;13.57;;;3.28;;
72127;SDS011;60000;51.030;7.024;2024-03-23T01:00:55;11.63;;;3.40;;
72127;SDS011;60000;51.030;7.024;2024-03-23T01:03:20;14.33;;;3.70;;
72127;SDS011;60000;51.030;7.024;2024-03-23T01:05:45;16.90;;;4.03;;
72127;SDS011;60000;51.030;7.024;2024-03-23T01:08:11;13.07;;;3.45;;
72127;SDS011;60000;51.030;7.024;2024-03-23T01:10:36;12.23;;;3.57;;
72127;SDS011;60000;51.030;7.024;2024-03-23T01:13:01;9.20;;;2.90;;
72127;SDS011;60000;51.030;7.024;2024-03-23T01:15:27;5.67;;;2.03;;
72127;SDS011;60000;51.030;7.024;2024-03-23T01:17:52;8.07;;;2.33;;
72127;SDS011;60000;51.030;7.024;2024-03-23T01:20:18;5.97;;;1.40;;
72127;SDS011;60000;51.030;7.024;2024-03-23T01:22:43;6.43;;;1.60;;
72127;SDS011;60000;51.030;7.024;2024-03-23T01:25:08;6.80;;;1.50;;
72127;SDS011;60000;51.030;7.024;2024-03-23T01:27:34;8.77;;;1.53;;
72127;SDS011;60000;51.030;7.024;2024-03-23T01:29:59;4.80;;;1.23;;
72127;SDS011;60000;51.030;7.024;2024-03-23T01:32:25;6.70;;;1.50;;
72127;SDS011;60000;51.030;7.024;2024-03-23T01:34:50;4.50;;;1.60;;
72127;SDS011;60000;51.030;7.024;2024-03-23T01:37:15;5.40;;;1.20;;
72127;SDS011;60000;51.030;7.024;2024-03-23T01:39:40;4.82;;;1.58;;
72127;SDS011;60000;51.030;7.024;2024-03-23T01:42:06;5.20;;;1.25;;
72127;SDS011;60000;51.030;7.024;2024-03-23T01:44:31;6.83;;;1.20;;
72127;SDS011;60000;51.030;7.024;2024-03-23T01:46:56;7.67;;;1.70;;
72127;SDS011;60000;51.030;7.024;2024-03-23T01:49:22;7.63;;;1.80;;
72127;SDS011;60000;51.030;7.024;2024-03-23T01:51:47;7.20;;;1.43;;
72127;SDS011;60000;51.030;7.024;2024-03-23T01:54:12;5.77;;;1.47;;
72127;SDS011;60000;51.030;7.024;2024-03-23T01:56:38;7.90;;;1.80;;
72127;SDS011;60000;51.030;7.024;2024-03-23T01:59:04;6.70;;;1.30;;
72127;SDS011;60000;51.030;7.024;2024-03-23T02:01:30;7.87;;;1.37;;
72127;SDS011;60000;51.030;7.024;2024-03-23T02:03:56;7.47;;;1.20;;
72127;SDS011;60000;51.030;7.024;2024-03-23T02:06:21;3.27;;;1.20;;
72127;SDS011;60000;51.030;7.024;2024-03-23T02:08:47;5.13;;;1.40;;
72127;SDS011;60000;51.030;7.024;2024-03-23T02:11:13;7.87;;;2.00;;
72127;SDS011;60000;51.030;7.024;2024-03-23T02:13:38;7.85;;;1.80;;
72127;SDS011;60000;51.030;7.024;2024-03-23T02:16:04;5.37;;;1.20;;
72127;SDS011;60000;51.030;7.024;2024-03-23T02:18:30;10.60;;;1.58;;
72127;SDS011;60000;51.030;7.024;2024-03-23T02:20:56;4.47;;;1.00;;
72127;SDS011;60000;51.030;7.024;2024-03-23T02:23:21;5.80;;;1.20;;
72127;SDS011;60000;51.030;7.024;2024-03-23T02:25:46;5.90;;;1.40;;
72127;SDS011;60000;51.030;7.024;2024-03-23T02:28:12;3.93;;;1.07;;
72127;SDS011;60000;51.030;7.024;2024-03-23T02:30:37;6.97;;;2.23;;
72127;SDS011;60000;51.030;7.024;2024-03-23T02:33:03;5.70;;;1.37;;
72127;SDS011;60000;51.030;7.024;2024-03-23T02:35:28;4.40;;;0.98;;
72127;SDS011;60000;51.030;7.024;2024-03-23T02:37:53;4.53;;;1.03;;
72127;SDS011;60000;51.030;7.024;2024-03-23T02:40:21;3.63;;;0.98;;
72127;SDS011;60000;51.030;7.024;2024-03-23T02:42:46;5.80;;;1.50;;
72127;SDS011;60000;51.030;7.024;2024-03-23T02:45:12;4.50;;;1.03;;
72127;SDS011;60000;51.030;7.024;2024-03-23T02:47:37;5.53;;;1.42;;
72127;SDS011;60000;51.030;7.024;2024-03-23T02:50:02;7.23;;;2.17;;
72127;SDS011;60000;51.030;7.024;2024-03-23T02:52:29;5.18;;;1.50;;
72127;SDS011;60000;51.030;7.024;2024-03-23T02:54:54;7.17;;;2.00;;
72127;SDS011;60000;51.030;7.024;2024-03-23T02:57:20;10.33;;;1.77;;
72127;SDS011;60000;51.030;7.024;2024-03-23T02:59:45;7.27;;;1.47;;
72127;SDS011;60000;51.030;7.024;2024-03-23T03:02:11;7.43;;;2.00;;
72127;SDS011;60000;51.030;7.024;2024-03-23T03:04:38;6.32;;;1.90;;
72127;SDS011;60000;51.030;7.024;2024-03-23T03:07:03;9.53;;;2.00;;
72127;SDS011;60000;51.030;7.024;2024-03-23T03:09:31;9.20;;;2.10;;
72127;SDS011;60000;51.030;7.024;2024-03-23T03:11:57;6.82;;;1.65;;
72127;SDS011;60000;51.030;7.024;2024-03-23T03:14:23;7.70;;;1.50;;
72127;SDS011;60000;51.030;7.024;2024-03-23T03:16:48;7.57;;;1.63;;
72127;SDS011;60000;51.030;7.024;2024-03-23T03:19:14;5.40;;;1.70;;
72127;SDS011;60000;51.030;7.024;2024-03-23T03:21:41;7.15;;;1.90;;
72127;SDS011;60000;51.030;7.024;2024-03-23T03:24:07;7.90;;;2.10;;
72127;SDS011;60000;51.030;7.024;2024-03-23T03:26:32;6.80;;;1.70;;
72127;SDS011;60000;51.030;7.024;2024-03-23T03:28:57;6.47;;;1.60;;
72127;SDS011;60000;51.030;7.024;2024-03-23T03:31:23;6.93;;;1.60;;
72127;SDS011;60000;51.030;7.024;2024-03-23T03:33:49;8.20;;;1.50;;
72127;SDS011;60000;51.030;7.024;2024-03-23T03:36:15;5.15;;;1.20;;
72127;SDS011;60000;51.030;7.024;2024-03-23T03:38:41;6.53;;;1.60;;
72127;SDS011;60000;51.030;7.024;2024-03-23T03:41:06;10.97;;;1.50;;
72127;SDS011;60000;51.030;7.024;2024-03-23T03:43:31;7.60;;;1.37;;
72127;SDS011;60000;51.030;7.024;2024-03-23T03:45:58;7.40;;;1.30;;
72127;SDS011;60000;51.030;7.024;2024-03-23T03:48:24;8.05;;;1.55;;
72127;SDS011;60000;51.030;7.024;2024-03-23T03:50:50;6.13;;;1.58;;
72127;SDS011;60000;51.030;7.024;2024-03-23T03:53:15;6.33;;;1.13;;
72127;SDS011;60000;51.030;7.024;2024-03-23T03:55:41;7.83;;;0.93;;
72127;SDS011;60000;51.030;7.024;2024-03-23T03:58:06;4.67;;;1.20;;
72127;SDS011;60000;51.030;7.024;2024-03-23T04:00:31;5.03;;;1.13;;
72127;SDS011;60000;51.030;7.024;2024-03-23T04:02:57;5.85;;;1.33;;
72127;SDS011;60000;51.030;7.024;2024-03-23T04:05:22;6.80;;;1.10;;
72127;SDS011;60000;51.030;7.024;2024-03-23T04:07:48;4.07;;;1.00;;
72127;SDS011;60000;51.030;7.024;2024-03-23T04:10:13;5.03;;;1.27;;
72127;SDS011;60000;51.030;7.024;2024-03-23T04:12:40;8.10;;;1.53;;
72127;SDS011;60000;51.030;7.024;2024-03-23T04:15:08;6.72;;;1.35;;
72127;SDS011;60000;51.030;7.024;2024-03-23T04:17:34;8.38;;;1.40;;
72127;SDS011;60000;51.030;7.024;2024-03-23T04:20:00;8.32;;;1.55;;
72127;SDS011;60000;51.030;7.024;2024-03-23T04:22:26;5.83;;;1.30;;
72127;SDS011;60000;51.030;7.024;2024-03-23T04:24:55;6.97;;;1.27;;
72127;SDS011;60000;51.030;7.024;2024-03-23T04:27:21;8.05;;;1.27;;
72127;SDS011;60000;51.030;7.024;2024-03-23T04:29:51;8.70;;;1.20;;
72127;SDS011;60000;51.030;7.024;2024-03-23T04:32:17;4.73;;;0.93;;
72127;SDS011;60000;51.030;7.024;2024-03-23T04:34:43;8.00;;;1.20;;
72127;SDS011;60000;51.030;7.024;2024-03-23T04:37:09;5.23;;;1.10;;
72127;SDS011;60000;51.030;7.024;2024-03-23T04:39:38;6.75;;;1.58;;
72127;SDS011;60000;51.030;7.024;2024-03-23T04:42:04;7.60;;;1.10;;
72127;SDS011;60000;51.030;7.024;2024-03-23T04:44:30;7.07;;;1.17;;
72127;SDS011;60000;51.030;7.024;2024-03-23T04:46:56;5.32;;;1.30;;
72127;SDS011;60000;51.030;7.024;2024-03-23T04:49:21;6.70;;;1.05;;
72127;SDS011;60000;51.030;7.024;2024-03-23T04:51:47;6.03;;;1.20;;
72127;SDS011;60000;51.030;7.024;2024-03-23T04:54:12;7.53;;;1.23;;
72127;SDS011;60000;51.030;7.024;2024-03-23T04:56:38;4.57;;;1.40;;
72127;SDS011;60000;51.030;7.024;2024-03-23T04:59:03;4.72;;;1.00;;
72127;SDS011;60000;51.030;7.024;2024-03-23T05:01:30;4.97;;;0.87;;
72127;SDS011;60000;51.030;7.024;2024-03-23T05:03:56;4.72;;;1.30;;
72127;SDS011;60000;51.030;7.024;2024-03-23T05:06:22;9.13;;;1.85;;
72127;SDS011;60000;51.030;7.024;2024-03-23T05:08:47;9.57;;;2.03;;
72127;SDS011;60000;51.030;7.024;2024-03-23T05:11:13;10.63;;;1.47;;
72127;SDS011;60000;51.030;7.024;2024-03-23T05:13:38;7.73;;;1.63;;
72127;SDS011;60000;51.030;7.024;2024-03-23T05:16:03;10.47;;;1.40;;
72127;SDS011;60000;51.030;7.024;2024-03-23T05:18:29;10.47;;;2.73;;
72127;SDS011;60000;51.030;7.024;2024-03-23T05:20:57;7.78;;;1.98;;
72127;SDS011;60000;51.030;7.024;2024-03-23T05:23:24;9.00;;;1.35;;
72127;SDS011;60000;51.030;7.024;2024-03-23T05:25:50;10.68;;;1.63;;
72127;SDS011;60000;51.030;7.024;2024-03-23T05:28:16;6.30;;;1.15;;
72127;SDS011;60000;51.030;7.024;2024-03-23T05:30:42;11.30;;;1.60;;
72127;SDS011;60000;51.030;7.024;2024-03-23T05:33:07;10.00;;;1.50;;
72127;SDS011;60000;51.030;7.024;2024-03-23T05:35:32;5.47;;;1.10;;
72127;SDS011;60000;51.030;7.024;2024-03-23T05:37:58;10.87;;;1.33;;
72127;SDS011;60000;51.030;7.024;2024-03-23T05:40:23;5.53;;;0.98;;
72127;SDS011;60000;51.030;7.024;2024-03-23T05:42:50;8.88;;;1.50;;
72127;SDS011;60000;51.030;7.024;2024-03-23T05:45:18;6.77;;;1.20;;
72127;SDS011;60000;51.030;7.024;2024-03-23T05:47:44;9.75;;;1.60;;
72127;SDS011;60000;51.030;7.024;2024-03-23T05:50:10;9.30;;;2.20;;
72127;SDS011;60000;51.030;7.024;2024-03-23T05:52:37;9.07;;;1.95;;
72127;SDS011;60000;51.030;7.024;2024-03-23T05:55:04;8.60;;;1.77;;
72127;SDS011;60000;51.030;7.024;2024-03-23T05:57:29;9.93;;;2.00;;
72127;SDS011;60000;51.030;7.024;2024-03-23T05:59:55;7.53;;;1.97;;
72127;SDS011;60000;51.030;7.024;2024-03-23T06:02:20;6.38;;;2.15;;
72127;SDS011;60000;51.030;7.024;2024-03-23T06:04:46;9.17;;;2.27;;
72127;SDS011;60000;51.030;7.024;2024-03-23T06:07:11;12.00;;;1.83;;
72127;SDS011;60000;51.030;7.024;2024-03-23T06:09:42;10.52;;;2.03;;
72127;SDS011;60000;51.030;7.024;2024-03-23T06:12:07;14.20;;;3.90;;
72127;SDS011;60000;51.030;7.024;2024-03-23T06:14:33;9.37;;;2.60;;
72127;SDS011;60000;51.030;7.024;2024-03-23T06:16:59;9.88;;;1.95;;
72127;SDS011;60000;51.030;7.024;2024-03-23T06:19:25;8.55;;;2.00;;
72127;SDS011;60000;51.030;7.024;2024-03-23T06:21:52;8.03;;;2.00;;
72127;SDS011;60000;51.030;7.024;2024-03-23T06:24:21;7.03;;;1.80;;
72127;SDS011;60000;51.030;7.024;2024-03-23T06:26:47;8.30;;;2.13;;
72127;SDS011;60000;51.030;7.024;2024-03-23T06:29:12;10.10;;;2.33;;
72127;SDS011;60000;51.030;7.024;2024-03-23T06:31:37;7.50;;;2.03;;
72127;SDS011;60000;51.030;7.024;2024-03-23T06:34:03;8.90;;;1.93;;
72127;SDS011;60000;51.030;7.024;2024-03-23T06:36:28;11.23;;;2.27;;
72127;SDS011;60000;51.030;7.024;2024-03-23T06:38:55;7.10;;;1.63;;
72127;SDS011;60000;51.030;7.024;2024-03-23T06:41:20;15.30;;;2.00;;
72127;SDS011;60000;51.030;7.024;2024-03-23T06:43:46;12.43;;;2.10;;
72127;SDS011;60000;51.030;7.024;2024-03-23T06:46:11;10.30;;;1.57;;
72127;SDS011;60000;51.030;7.024;2024-03-23T06:48:36;6.13;;;1.90;;
72127;SDS011;60000;51.030;7.024;2024-03-23T06:51:02;6.50;;;1.98;;
72127;SDS011;60000;51.030;7.024;2024-03-23T06:53:28;13.10;;;2.30;;
72127;SDS011;60000;51.030;7.024;2024-03-23T06:55:54;11.27;;;2.40;;
72127;SDS011;60000;51.030;7.024;2024-03-23T06:58:20;10.73;;;2.75;;
72127;SDS011;60000;51.030;7.024;2024-03-23T07:00:46;8.30;;;2.05;;
72127;SDS011;60000;51.030;7.024;2024-03-23T07:03:12;12.90;;;2.07;;
72127;SDS011;60000;51.030;7.024;2024-03-23T07:05:37;10.07;;;1.90;;
72127;SDS011;60000;51.030;7.024;2024-03-23T07:08:03;9.27;;;2.23;;
72127;SDS011;60000;51.030;7.024;2024-03-23T07:10:28;9.90;;;2.47;;
72127;SDS011;60000;51.030;7.024;2024-03-23T07:12:53;10.67;;;2.20;;
72127;SDS011;60000;51.030;7.024;2024-03-23T07:15:19;8.10;;;2.22;;
72127;SDS011;60000;51.030;7.024;2024-03-23T07:17:46;12.57;;;3.42;;
72127;SDS011;60000;51.030;7.024;2024-03-23T07:20:12;7.40;;;1.80;;
72127;SDS011;60000;51.030;7.024;2024-03-23T07:22:38;11.45;;;2.22;;
72127;SDS011;60000;51.030;7.024;2024-03-23T07:25:04;8.67;;;2.83;;
72127;SDS011;60000;51.030;7.024;2024-03-23T07:27:31;12.85;;;2.58;;
72127;SDS011;60000;51.030;7.024;2024-03-23T07:29:56;13.73;;;2.60;;
72127;SDS011;60000;51.030;7.024;2024-03-23T07:32:21;11.43;;;2.60;;
72127;SDS011;60000;51.030;7.024;2024-03-23T07:34:47;6.50;;;2.00;;
72127;SDS011;60000;51.030;7.024;2024-03-23T07:37:12;11.77;;;2.60;;
72127;SDS011;60000;51.030;7.024;2024-03-23T07:39:39;9.93;;;2.37;;
72127;SDS011;60000;51.030;7.024;2024-03-23T07:42:04;15.18;;;2.80;;
72127;SDS011;60000;51.030;7.024;2024-03-23T07:44:30;12.20;;;2.83;;
72127;SDS011;60000;51.030;7.024;2024-03-23T07:46:55;8.68;;;2.78;;
72127;SDS011;60000;51.030;7.024;2024-03-23T07:49:21;8.30;;;2.17;;
72127;SDS011;60000;51.030;7.024;2024-03-23T07:51:46;8.53;;;2.07;;
72127;SDS011;60000;51.030;7.024;2024-03-23T07:54:11;5.70;;;1.50;;
72127;SDS011;60000;51.030;7.024;2024-03-23T07:56:37;7.40;;;1.93;;
72127;SDS011;60000;51.030;7.024;2024-03-23T07:59:02;9.20;;;2.40;;
72127;SDS011;60000;51.030;7.024;2024-03-23T08:01:30;11.85;;;3.03;;
72127;SDS011;60000;51.030;7.024;2024-03-23T08:03:55;10.27;;;2.77;;
72127;SDS011;60000;51.030;7.024;2024-03-23T08:06:21;12.53;;;2.70;;
72127;SDS011;60000;51.030;7.024;2024-03-23T08:08:48;6.97;;;1.65;;
72127;SDS011;60000;51.030;7.024;2024-03-23T08:11:15;9.23;;;3.13;;
72127;SDS011;60000;51.030;7.024;2024-03-23T08:13:41;8.47;;;1.87;;
72127;SDS011;60000;51.030;7.024;2024-03-23T08:16:07;11.77;;;3.10;;
72127;SDS011;60000;51.030;7.024;2024-03-23T08:18:37;7.40;;;2.70;;
72127;SDS011;60000;51.030;7.024;2024-03-23T08:21:03;12.20;;;3.65;;
72127;SDS011;60000;51.030;7.024;2024-03-23T08:23:30;10.70;;;2.72;;
72127;SDS011;60000;51.030;7.024;2024-03-23T08:26:02;10.53;;;3.10;;
72127;SDS011;60000;51.030;7.024;2024-03-23T08:28:28;10.60;;;3.20;;
72127;SDS011;60000;51.030;7.024;2024-03-23T08:30:54;7.60;;;2.00;;
72127;SDS011;60000;51.030;7.024;2024-03-23T08:33:20;10.05;;;2.08;;
72127;SDS011;60000;51.030;7.024;2024-03-23T08:35:53;7.10;;;2.25;;
72127;SDS011;60000;51.030;7.024;2024-03-23T08:38:20;5.88;;;2.25;;
72127;SDS011;60000;51.030;7.024;2024-03-23T08:40:45;7.53;;;2.30;;
72127;SDS011;60000;51.030;7.024;2024-03-23T08:43:10;7.83;;;2.53;;
72127;SDS011;60000;51.030;7.024;2024-03-23T08:45:35;6.67;;;2.10;;
72127;SDS011;60000;51.030;7.024;2024-03-23T08:48:01;9.07;;;2.63;;
72127;SDS011;60000;51.030;7.024;2024-03-23T08:50:26;9.93;;;2.40;;
72127;SDS011;60000;51.030;7.024;2024-03-23T08:52:51;6.43;;;1.73;;
72127;SDS011;60000;51.030;7.024;2024-03-23T08:55:16;6.10;;;1.80;;
72127;SDS011;60000;51.030;7.024;2024-03-23T08:57:42;11.13;;;2.70;;
72127;SDS011;60000;51.030;7.024;2024-03-23T09:00:07;7.23;;;2.67;;
72127;SDS011;60000;51.030;7.024;2024-03-23T09:02:34;15.60;;;2.50;;
72127;SDS011;60000;51.030;7.024;2024-03-23T09:04:59;5.63;;;1.73;;
72127;SDS011;60000;51.030;7.024;2024-03-23T09:07:29;7.53;;;2.00;;
72127;SDS011;60000;51.030;7.024;2024-03-23T09:09:55;8.33;;;2.13;;
72127;SDS011;60000;51.030;7.024;2024-03-23T09:12:20;5.23;;;1.93;;
72127;SDS011;60000;51.030;7.024;2024-03-23T09:14:46;7.10;;;2.03;;
72127;SDS011;60000;51.030;7.024;2024-03-23T09:17:11;9.00;;;2.30;;
72127;SDS011;60000;51.030;7.024;2024-03-23T09:19:36;8.63;;;2.90;;
72127;SDS011;60000;51.030;7.024;2024-03-23T09:22:01;8.27;;;2.23;;
72127;SDS011;60000;51.030;7.024;2024-03-23T09:24:27;9.50;;;2.70;;
72127;SDS011;60000;51.030;7.024;2024-03-23T09:26:52;7.37;;;2.00;;
72127;SDS011;60000;51.030;7.024;2024-03-23T09:29:17;7.43;;;2.30;;
72127;SDS011;60000;51.030;7.024;2024-03-23T09:31:43;7.55;;;2.15;;
72127;SDS011;60000;51.030;7.024;2024-03-23T09:34:08;8.03;;;1.73;;
72127;SDS011;60000;51.030;7.024;2024-03-23T09:36:33;5.83;;;1.43;;
72127;SDS011;60000;51.030;7.024;2024-03-23T09:38:59;12.20;;;1.53;;
72127;SDS011;60000;51.030;7.024;2024-03-23T09:41:24;7.70;;;1.47;;
72127;SDS011;60000;51.030;7.024;2024-03-23T09:43:52;4.80;;;1.33;;
72127;SDS011;60000;51.030;7.024;2024-03-23T09:46:18;5.68;;;1.48;;
72127;SDS011;60000;51.030;7.024;2024-03-23T09:48:44;5.40;;;1.73;;
72127;SDS011;60000;51.030;7.024;2024-03-23T09:51:12;9.90;;;1.20;;
72127;SDS011;60000;51.030;7.024;2024-03-23T09:53:37;7.50;;;1.70;;
72127;SDS011;60000;51.030;7.024;2024-03-23T09:56:03;7.35;;;1.55;;
72127;SDS011;60000;51.030;7.024;2024-03-23T09:58:29;8.32;;;1.85;;
72127;SDS011;60000;51.030;7.024;2024-03-23T10:00:57;9.27;;;1.40;;
72127;SDS011;60000;51.030;7.024;2024-03-23T10:03:22;7.37;;;1.77;;
72127;SDS011;60000;51.030;7.024;2024-03-23T10:05:47;6.37;;;1.43;;
72127;SDS011;60000;51.030;7.024;2024-03-23T10:08:25;4.50;;;1.13;;
72127;SDS011;60000;51.030;7.024;2024-03-23T10:10:50;6.50;;;1.27;;
72127;SDS011;60000;51.030;7.024;2024-03-23T10:13:25;6.10;;;0.93;;
72127;SDS011;60000;51.030;7.024;2024-03-23T10:15:55;7.22;;;1.20;;
72127;SDS011;60000;51.030;7.024;2024-03-23T10:18:22;5.35;;;1.48;;
72127;SDS011;60000;51.030;7.024;2024-03-23T10:23:36;8.35;;;1.50;;
72127;SDS011;60000;51.030;7.024;2024-03-23T10:28:59;5.75;;;1.80;;
72127;SDS011;60000;51.030;7.024;2024-03-23T10:31:29;5.65;;;1.48;;
72127;SDS011;60000;51.030;7.024;2024-03-23T10:33:55;4.60;;;1.50;;
72127;SDS011;60000;51.030;7.024;2024-03-23T10:36:21;3.80;;;1.00;;
72127;SDS011;60000;51.030;7.024;2024-03-23T10:38:47;7.07;;;1.00;;
72127;SDS011;60000;51.030;7.024;2024-03-23T10:41:15;5.93;;;1.33;;
72127;SDS011;60000;51.030;7.024;2024-03-23T10:43:41;4.20;;;0.90;;
72127;SDS011;60000;51.030;7.024;2024-03-23T10:46:09;3.13;;;1.08;;
72127;SDS011;60000;51.030;7.024;2024-03-23T10:48:34;3.10;;;1.10;;
72127;SDS011;60000;51.030;7.024;2024-03-23T10:51:00;2.80;;;0.90;;
72127;SDS011;60000;51.030;7.024;2024-03-23T10:53:26;3.03;;;0.93;;
72127;SDS011;60000;51.030;7.024;2024-03-23T10:55:52;2.00;;;0.60;;
72127;SDS011;60000;51.030;7.024;2024-03-23T10:58:28;2.53;;;1.00;;
72127;SDS011;60000;51.030;7.024;2024-03-23T11:00:56;5.15;;;0.80;;
72127;SDS011;60000;51.030;7.024;2024-03-23T11:03:29;4.00;;;0.95;;
72127;SDS011;60000;51.030;7.024;2024-03-23T11:06:02;3.33;;;1.02;;
72127;SDS011;60000;51.030;7.024;2024-03-23T11:08:29;3.73;;;1.10;;
72127;SDS011;60000;51.030;7.024;2024-03-23T11:11:11;4.65;;;1.13;;
72127;SDS011;60000;51.030;7.024;2024-03-23T11:13:53;3.17;;;0.98;;
72127;SDS011;60000;51.030;7.024;2024-03-23T11:16:22;3.50;;;1.00;;
72127;SDS011;60000;51.030;7.024;2024-03-23T11:21:58;5.10;;;1.40;;
72127;SDS011;60000;51.030;7.024;2024-03-23T11:24:24;3.55;;;0.80;;
72127;SDS011;60000;51.030;7.024;2024-03-23T11:26:49;1.37;;;0.70;;
72127;SDS011;60000;51.030;7.024;2024-03-23T11:29:15;1.30;;;0.50;;
72127;SDS011;60000;51.030;7.024;2024-03-23T11:31:51;1.58;;;0.70;;
72127;SDS011;60000;51.030;7.024;2024-03-23T11:34:18;2.33;;;0.60;;
72127;SDS011;60000;51.030;7.024;2024-03-23T11:36:44;1.15;;;0.50;;
72127;SDS011;60000;51.030;7.024;2024-03-23T11:39:14;3.00;;;0.70;;
72127;SDS011;60000;51.030;7.024;2024-03-23T11:41:50;2.10;;;0.93;;
72127;SDS011;60000;51.030;7.024;2024-03-23T11:44:20;1.58;;;0.60;;
72127;SDS011;60000;51.030;7.024;2024-03-23T11:46:49;3.00;;;0.60;;
72127;SDS011;60000;51.030;7.024;2024-03-23T11:51:53;2.40;;;0.60;;
72127;SDS011;60000;51.030;7.024;2024-03-23T11:54:20;2.15;;;0.70;;
72127;SDS011;60000;51.030;7.024;2024-03-23T11:57:03;1.80;;;0.60;;
72127;SDS011;60000;51.030;7.024;2024-03-23T12:02:05;2.10;;;0.60;;
72127;SDS011;60000;51.030;7.024;2024-03-23T12:04:40;2.60;;;0.80;;
72127;SDS011;60000;51.030;7.024;2024-03-23T12:07:24;2.72;;;0.75;;
72127;SDS011;60000;51.030;7.024;2024-03-23T12:10:02;4.78;;;1.10;;
72127;SDS011;60000;51.030;7.024;2024-03-23T12:12:29;4.50;;;1.40;;
72127;SDS011;60000;51.030;7.024;2024-03-23T12:15:01;4.77;;;1.23;;
72127;SDS011;60000;51.030;7.024;2024-03-23T12:17:28;3.20;;;1.02;;
72127;SDS011;60000;51.030;7.024;2024-03-23T12:19:53;4.07;;;1.27;;
72127;SDS011;60000;51.030;7.024;2024-03-23T12:22:21;6.07;;;1.10;;
72127;SDS011;60000;51.030;7.024;2024-03-23T12:24:47;1.30;;;0.52;;
72127;SDS011;60000;51.030;7.024;2024-03-23T12:27:13;5.10;;;1.00;;
72127;SDS011;60000;51.030;7.024;2024-03-23T12:29:39;1.70;;;0.90;;
72127;SDS011;60000;51.030;7.024;2024-03-23T12:32:06;2.65;;;0.80;;
72127;SDS011;60000;51.030;7.024;2024-03-23T12:34:32;1.90;;;0.70;;
72127;SDS011;60000;51.030;7.024;2024-03-23T12:36:57;2.20;;;0.50;;
72127;SDS011;60000;51.030;7.024;2024-03-23T12:39:23;5.23;;;0.77;;
72127;SDS011;60000;51.030;7.024;2024-03-23T12:41:48;3.20;;;0.90;;
72127;SDS011;60000;51.030;7.024;2024-03-23T12:44:14;1.30;;;0.60;;
72127;SDS011;60000;51.030;7.024;2024-03-23T12:46:40;1.30;;;0.55;;
72127;SDS011;60000;51.030;7.024;2024-03-23T12:49:06;1.10;;;0.50;;
72127;SDS011;60000;51.030;7.024;2024-03-23T12:51:32;1.83;;;0.50;;
72127;SDS011;60000;51.030;7.024;2024-03-23T12:53:57;1.80;;;0.68;;
72127;SDS011;60000;51.030;7.024;2024-03-23T12:56:23;1.47;;;0.50;;
72127;SDS011;60000;51.030;7.024;2024-03-23T12:58:48;2.60;;;0.70;;
72127;SDS011;60000;51.030;7.024;2024-03-23T13:01:16;1.60;;;0.65;;
72127;SDS011;60000;51.030;7.024;2024-03-23T13:03:42;2.03;;;0.70;;
72127;SDS011;60000;51.030;7.024;2024-03-23T13:06:09;2.08;;;0.70;;
72127;SDS011;60000;51.030;7.024;2024-03-23T13:08:34;1.97;;;0.70;;
72127;SDS011;60000;51.030;7.024;2024-03-23T13:11:00;1.47;;;0.50;;
72127;SDS011;60000;51.030;7.024;2024-03-23T13:13:25;2.88;;;0.70;;
72127;SDS011;60000;51.030;7.024;2024-03-23T13:15:50;4.00;;;0.63;;
72127;SDS011;60000;51.030;7.024;2024-03-23T13:18:16;2.23;;;0.73;;
72127;SDS011;60000;51.030;7.024;2024-03-23T13:20:41;2.90;;;0.90;;
72127;SDS011;60000;51.030;7.024;2024-03-23T13:23:07;2.33;;;0.90;;
72127;SDS011;60000;51.030;7.024;2024-03-23T13:25:32;1.73;;;0.60;;
72127;SDS011;60000;51.030;7.024;2024-03-23T13:27:58;2.45;;;0.70;;
72127;SDS011;60000;51.030;7.024;2024-03-23T13:30:23;4.27;;;1.27;;
72127;SDS011;60000;51.030;7.024;2024-03-23T13:32:49;2.47;;;0.70;;
72127;SDS011;60000;51.030;7.024;2024-03-23T13:35:15;5.55;;;1.17;;
72127;SDS011;60000;51.030;7.024;2024-03-23T13:37:40;3.13;;;0.87;;
72127;SDS011;60000;51.030;7.024;2024-03-23T13:40:06;2.47;;;0.80;;
72127;SDS011;60000;51.030;7.024;2024-03-23T13:42:32;7.07;;;1.20;;
72127;SDS011;60000;51.030;7.024;2024-03-23T13:44:57;4.70;;;1.30;;
72127;SDS011;60000;51.030;7.024;2024-03-23T13:47:23;2.63;;;0.80;;
72127;SDS011;60000;51.030;7.024;2024-03-23T13:49:48;4.23;;;1.27;;
72127;SDS011;60000;51.030;7.024;2024-03-23T13:52:14;2.22;;;0.85;;
72127;SDS011;60000;51.030;7.024;2024-03-23T13:54:39;3.47;;;1.20;;
72127;SDS011;60000;51.030;7.024;2024-03-23T13:57:10;3.03;;;1.10;;
72127;SDS011;60000;51.030;7.024;2024-03-23T13:59:35;3.00;;;1.00;;
72127;SDS011;60000;51.030;7.024;2024-03-23T14:02:01;5.87;;;1.00;;
72127;SDS011;60000;51.030;7.024;2024-03-23T14:04:26;4.88;;;1.48;;
72127;SDS011;60000;51.030;7.024;2024-03-23T14:06:52;3.95;;;1.35;;
72127;SDS011;60000;51.030;7.024;2024-03-23T14:09:17;2.10;;;0.70;;
72127;SDS011;60000;51.030;7.024;2024-03-23T14:11:48;1.52;;;0.57;;
72127;SDS011;60000;51.030;7.024;2024-03-23T14:14:13;2.07;;;0.70;;
72127;SDS011;60000;51.030;7.024;2024-03-23T14:16:41;4.75;;;0.70;;
72127;SDS011;60000;51.030;7.024;2024-03-23T14:19:07;1.73;;;0.70;;
72127;SDS011;60000;51.030;7.024;2024-03-23T14:21:32;6.00;;;0.90;;
72127;SDS011;60000;51.030;7.024;2024-03-23T14:23:59;4.45;;;0.80;;
72127;SDS011;60000;51.030;7.024;2024-03-23T14:26:25;2.08;;;0.70;;
72127;SDS011;60000;51.030;7.024;2024-03-23T14:28:51;4.40;;;0.70;;
72127;SDS011;60000;51.030;7.024;2024-03-23T14:31:16;2.78;;;0.60;;
72127;SDS011;60000;51.030;7.024;2024-03-23T14:33:42;4.03;;;0.70;;
72127;SDS011;60000;51.030;7.024;2024-03-23T14:36:12;3.83;;;1.07;;
72127;SDS011;60000;51.030;7.024;2024-03-23T14:38:38;5.18;;;1.00;;
72127;SDS011;60000;51.030;7.024;2024-03-23T14:41:03;2.83;;;0.80;;
72127;SDS011;60000;51.030;7.024;2024-03-23T14:43:29;3.22;;;0.90;;
72127;SDS011;60000;51.030;7.024;2024-03-23T14:46:13;2.17;;;0.70;;
72127;SDS011;60000;51.030;7.024;2024-03-23T14:48:41;2.78;;;0.90;;
72127;SDS011;60000;51.030;7.024;2024-03-23T14:51:07;2.92;;;1.30;;
72127;SDS011;60000;51.030;7.024;2024-03-23T14:53:34;4.18;;;0.95;;
72127;SDS011;60000;51.030;7.024;2024-03-23T14:56:00;4.13;;;1.10;;
72127;SDS011;60000;51.030;7.024;2024-03-23T14:58:27;3.10;;;0.93;;
72127;SDS011;60000;51.030;7.024;2024-03-23T15:00:52;4.75;;;1.40;;
72127;SDS011;60000;51.030;7.024;2024-03-23T15:03:18;2.75;;;0.80;;
72127;SDS011;60000;51.030;7.024;2024-03-23T15:05:56;3.13;;;0.63;;
72127;SDS011;60000;51.030;7.024;2024-03-23T15:08:23;1.55;;;0.52;;
72127;SDS011;60000;51.030;7.024;2024-03-23T15:10:49;3.97;;;0.98;;
72127;SDS011;60000;51.030;7.024;2024-03-23T15:13:14;4.07;;;1.05;;
72127;SDS011;60000;51.030;7.024;2024-03-23T15:15:40;3.47;;;1.20;;
72127;SDS011;60000;51.030;7.024;2024-03-23T15:18:08;2.47;;;0.80;;
72127;SDS011;60000;51.030;7.024;2024-03-23T15:20:34;3.22;;;0.82;;
72127;SDS011;60000;51.030;7.024;2024-03-23T15:23:01;1.67;;;0.70;;
72127;SDS011;60000;51.030;7.024;2024-03-23T15:25:27;3.33;;;0.82;;
72127;SDS011;60000;51.030;7.024;2024-03-23T15:27:52;2.87;;;1.00;;
72127;SDS011;60000;51.030;7.024;2024-03-23T15:30:18;6.70;;;1.08;;
72127;SDS011;60000;51.030;7.024;2024-03-23T15:32:44;4.50;;;1.30;;
72127;SDS011;60000;51.030;7.024;2024-03-23T15:35:09;4.00;;;1.10;;
72127;SDS011;60000;51.030;7.024;2024-03-23T15:37:35;3.35;;;0.82;;
72127;SDS011;60000;51.030;7.024;2024-03-23T15:40:01;4.18;;;1.08;;
72127;SDS011;60000;51.030;7.024;2024-03-23T15:42:26;3.90;;;1.00;;
72127;SDS011;60000;51.030;7.024;2024-03-23T15:44:51;2.73;;;0.80;;
72127;SDS011;60000;51.030;7.024;2024-03-23T15:47:17;2.60;;;0.87;;